sensor_id;sensor_type;location;lat;lon;timestamp;temperature;humidity
64951;DHT22;51482;47.014;7.652;2022-12-07T00:01:11;1.90;99.90
64951;DHT22;51482;47.014;7.652;2022-12-07T00:03:38;2.00;99.90
64951;DHT22;51482;47.014;7.652;2022-12-07T00:06:05;2.10;99.90
64951;DHT22;51482;47.014;7.652;2022-12-07T00:08:32;1.30;99.90
64951;DHT22;51482;47.014;7.652;2022-12-07T00:11:05;1.80;99.90
64951;DHT22;51482;47.014;7.652;2022-12-07T00:13:32;1.50;99.90
64951;DHT22;51482;47.014;7.652;2022-12-07T00:16:07;1.40;99.90
64951;DHT22;51482;47.014;7.652;2022-12-07T00:18:33;1.50;99.90
64951;DHT22;51482;47.014;7.652;2022-12-07T00:21:03;1.00;99.90
64951;DHT22;51482;47.014;7.652;2022-12-07T00:23:29;1.00;99.90
64951;DHT22;51482;47.014;7.652;2022-12-07T00:25:55;1.60;99.90
64951;DHT22;51482;47.014;7.652;2022-12-07T00:28:20;1.50;99.90
64951;DHT22;51482;47.014;7.652;2022-12-07T00:30:46;2.10;99.90
64951;DHT22;51482;47.014;7.652;2022-12-07T00:33:11;2.20;99.90
64951;DHT22;51482;47.014;7.652;2022-12-07T00:35:37;1.50;99.90
64951;DHT22;51482;47.014;7.652;2022-12-07T00:38:02;2.10;99.90
64951;DHT22;51482;47.014;7.652;2022-12-07T00:40:28;1.40;99.90
64951;DHT22;51482;47.014;7.652;2022-12-07T00:42:53;0.90;99.90
64951;DHT22;51482;47.014;7.652;2022-12-07T00:45:19;1.40;99.90
64951;DHT22;51482;47.014;7.652;2022-12-07T00:47:45;2.10;99.90
64951;DHT22;51482;47.014;7.652;2022-12-07T00:50:10;1.30;99.90
64951;DHT22;51482;47.014;7.652;2022-12-07T00:52:36;2.20;99.90
64951;DHT22;51482;47.014;7.652;2022-12-07T00:55:01;1.40;99.90
64951;DHT22;51482;47.014;7.652;2022-12-07T00:57:27;2.20;99.90
64951;DHT22;51482;47.014;7.652;2022-12-07T00:59:52;2.10;99.90
64951;DHT22;51482;47.014;7.652;2022-12-07T01:02:21;1.20;99.90
64951;DHT22;51482;47.014;7.652;2022-12-07T01:04:46;1.90;99.90
64951;DHT22;51482;47.014;7.652;2022-12-07T01:07:12;1.30;99.90
64951;DHT22;51482;47.014;7.652;2022-12-07T01:09:37;2.00;99.90
64951;DHT22;51482;47.014;7.652;2022-12-07T01:12:03;2.00;99.90
64951;DHT22;51482;47.014;7.652;2022-12-07T01:14:29;1.40;99.90
64951;DHT22;51482;47.014;7.652;2022-12-07T01:16:54;1.90;99.90
64951;DHT22;51482;47.014;7.652;2022-12-07T01:19:20;1.40;99.90
64951;DHT22;51482;47.014;7.652;2022-12-07T01:21:45;1.30;99.90
64951;DHT22;51482;47.014;7.652;2022-12-07T01:24:11;2.10;99.90
64951;DHT22;51482;47.014;7.652;2022-12-07T01:26:37;1.50;99.90
64951;DHT22;51482;47.014;7.652;2022-12-07T01:29:02;2.20;99.90
64951;DHT22;51482;47.014;7.652;2022-12-07T01:31:28;2.20;99.90
64951;DHT22;51482;47.014;7.652;2022-12-07T01:33:59;1.50;99.90
64951;DHT22;51482;47.014;7.652;2022-12-07T01:36:32;2.30;99.90
64951;DHT22;51482;47.014;7.652;2022-12-07T01:39:00;1.90;99.90
64951;DHT22;51482;47.014;7.652;2022-12-07T01:41:29;1.50;99.90
64951;DHT22;51482;47.014;7.652;2022-12-07T01:46:36;1.60;99.90
64951;DHT22;51482;47.014;7.652;2022-12-07T01:49:02;2.30;99.90
64951;DHT22;51482;47.014;7.652;2022-12-07T01:51:29;1.60;99.90
64951;DHT22;51482;47.014;7.652;2022-12-07T01:53:55;2.30;99.90
64951;DHT22;51482;47.014;7.652;2022-12-07T01:56:24;2.40;99.90
64951;DHT22;51482;47.014;7.652;2022-12-07T01:58:51;1.90;99.90
64951;DHT22;51482;47.014;7.652;2022-12-07T02:01:18;2.00;99.90
64951;DHT22;51482;47.014;7.652;2022-12-07T02:03:44;2.30;99.90
64951;DHT22;51482;47.014;7.652;2022-12-07T02:06:12;2.40;99.90
64951;DHT22;51482;47.014;7.652;2022-12-07T02:08:39;1.90;99.90
64951;DHT22;51482;47.014;7.652;2022-12-07T02:11:05;2.50;99.90
64951;DHT22;51482;47.014;7.652;2022-12-07T02:13:35;2.40;99.90
64951;DHT22;51482;47.014;7.652;2022-12-07T02:16:08;2.50;99.90
64951;DHT22;51482;47.014;7.652;2022-12-07T02:18:38;1.90;99.90
64951;DHT22;51482;47.014;7.652;2022-12-07T02:24:19;1.90;99.90
64951;DHT22;51482;47.014;7.652;2022-12-07T02:34:55;1.90;99.90
64951;DHT22;51482;47.014;7.652;2022-12-07T02:42:42;1.90;99.90
64951;DHT22;51482;47.014;7.652;2022-12-07T02:45:10;1.30;99.90
64951;DHT22;51482;47.014;7.652;2022-12-07T02:47:37;2.60;99.90
64951;DHT22;51482;47.014;7.652;2022-12-07T02:50:05;1.80;99.90
64951;DHT22;51482;47.014;7.652;2022-12-07T02:52:31;1.90;99.90
64951;DHT22;51482;47.014;7.652;2022-12-07T02:54:56;1.10;99.90
64951;DHT22;51482;47.014;7.652;2022-12-07T02:57:50;2.00;99.90
64951;DHT22;51482;47.014;7.652;2022-12-07T03:00:20;2.50;99.90
64951;DHT22;51482;47.014;7.652;2022-12-07T03:02:59;2.40;99.90
64951;DHT22;51482;47.014;7.652;2022-12-07T03:12:00;2.00;99.90
64951;DHT22;51482;47.014;7.652;2022-12-07T03:14:30;1.90;99.90
64951;DHT22;51482;47.014;7.652;2022-12-07T03:17:03;2.60;99.90
64951;DHT22;51482;47.014;7.652;2022-12-07T03:19:32;1.90;99.90
64951;DHT22;51482;47.014;7.652;2022-12-07T03:22:11;1.80;99.90
64951;DHT22;51482;47.014;7.652;2022-12-07T03:24:43;2.60;99.90
64951;DHT22;51482;47.014;7.652;2022-12-07T03:27:18;1.50;99.90
64951;DHT22;51482;47.014;7.652;2022-12-07T03:30:02;1.90;99.90
64951;DHT22;51482;47.014;7.652;2022-12-07T03:32:48;1.80;99.90
64951;DHT22;51482;47.014;7.652;2022-12-07T03:35:25;2.60;99.90
64951;DHT22;51482;47.014;7.652;2022-12-07T03:40:28;1.90;99.90
64951;DHT22;51482;47.014;7.652;2022-12-07T03:42:55;1.80;99.90
64951;DHT22;51482;47.014;7.652;2022-12-07T03:45:25;2.60;99.90
64951;DHT22;51482;47.014;7.652;2022-12-07T03:48:07;2.00;99.90
64951;DHT22;51482;47.014;7.652;2022-12-07T03:51:07;2.10;99.90
64951;DHT22;51482;47.014;7.652;2022-12-07T03:53:44;2.10;99.90
64951;DHT22;51482;47.014;7.652;2022-12-07T03:56:12;1.80;99.90
64951;DHT22;51482;47.014;7.652;2022-12-07T03:58:39;2.60;99.90
64951;DHT22;51482;47.014;7.652;2022-12-07T04:01:05;2.00;99.90
64951;DHT22;51482;47.014;7.652;2022-12-07T04:03:31;2.20;99.90
64951;DHT22;51482;47.014;7.652;2022-12-07T04:05:56;2.70;99.90
64951;DHT22;51482;47.014;7.652;2022-12-07T04:08:24;2.70;99.90
64951;DHT22;51482;47.014;7.652;2022-12-07T04:10:49;2.60;99.90
64951;DHT22;51482;47.014;7.652;2022-12-07T04:13:15;2.10;99.90
64951;DHT22;51482;47.014;7.652;2022-12-07T04:15:40;2.70;99.90
64951;DHT22;51482;47.014;7.652;2022-12-07T04:18:06;1.90;99.90
64951;DHT22;51482;47.014;7.652;2022-12-07T04:20:31;1.90;99.90
64951;DHT22;51482;47.014;7.652;2022-12-07T04:22:57;2.20;99.90
64951;DHT22;51482;47.014;7.652;2022-12-07T04:25:23;2.50;99.90
64951;DHT22;51482;47.014;7.652;2022-12-07T04:27:48;2.10;99.90
64951;DHT22;51482;47.014;7.652;2022-12-07T04:30:14;2.70;99.90
64951;DHT22;51482;47.014;7.652;2022-12-07T04:32:39;2.40;99.90
64951;DHT22;51482;47.014;7.652;2022-12-07T04:35:05;2.90;99.90
64951;DHT22;51482;47.014;7.652;2022-12-07T04:37:31;2.20;99.90
64951;DHT22;51482;47.014;7.652;2022-12-07T04:39:56;2.20;99.90
64951;DHT22;51482;47.014;7.652;2022-12-07T04:42:22;2.40;99.90
64951;DHT22;51482;47.014;7.652;2022-12-07T04:44:47;2.30;99.90
64951;DHT22;51482;47.014;7.652;2022-12-07T04:47:13;2.60;99.90
64951;DHT22;51482;47.014;7.652;2022-12-07T04:49:38;2.90;99.90
64951;DHT22;51482;47.014;7.652;2022-12-07T04:52:04;2.10;99.90
64951;DHT22;51482;47.014;7.652;2022-12-07T04:54:30;2.20;99.90
64951;DHT22;51482;47.014;7.652;2022-12-07T04:56:55;2.80;99.90
64951;DHT22;51482;47.014;7.652;2022-12-07T04:59:21;2.00;99.90
64951;DHT22;51482;47.014;7.652;2022-12-07T05:01:46;2.00;99.90
64951;DHT22;51482;47.014;7.652;2022-12-07T05:04:12;2.70;99.90
64951;DHT22;51482;47.014;7.652;2022-12-07T05:06:38;2.70;99.90
64951;DHT22;51482;47.014;7.652;2022-12-07T05:09:04;1.80;99.90
64951;DHT22;51482;47.014;7.652;2022-12-07T05:11:30;2.10;99.90
64951;DHT22;51482;47.014;7.652;2022-12-07T05:14:14;2.10;99.90
64951;DHT22;51482;47.014;7.652;2022-12-07T05:16:41;2.10;99.90
64951;DHT22;51482;47.014;7.652;2022-12-07T05:19:08;1.70;99.90
64951;DHT22;51482;47.014;7.652;2022-12-07T05:21:34;2.70;99.90
64951;DHT22;51482;47.014;7.652;2022-12-07T05:24:00;2.20;99.90
64951;DHT22;51482;47.014;7.652;2022-12-07T05:26:26;2.70;99.90
64951;DHT22;51482;47.014;7.652;2022-12-07T05:28:53;2.80;99.90
64951;DHT22;51482;47.014;7.652;2022-12-07T05:31:19;2.70;99.90
64951;DHT22;51482;47.014;7.652;2022-12-07T05:33:45;1.90;99.90
64951;DHT22;51482;47.014;7.652;2022-12-07T05:36:10;2.60;99.90
64951;DHT22;51482;47.014;7.652;2022-12-07T05:38:36;1.70;99.90
64951;DHT22;51482;47.014;7.652;2022-12-07T05:41:03;2.60;99.90
64951;DHT22;51482;47.014;7.652;2022-12-07T05:43:29;2.00;99.90
64951;DHT22;51482;47.014;7.652;2022-12-07T05:45:55;2.00;99.90
64951;DHT22;51482;47.014;7.652;2022-12-07T05:48:20;2.50;99.90
64951;DHT22;51482;47.014;7.652;2022-12-07T05:50:50;1.90;99.90
64951;DHT22;51482;47.014;7.652;2022-12-07T05:53:15;2.50;99.90
64951;DHT22;51482;47.014;7.652;2022-12-07T05:55:42;2.70;99.90
64951;DHT22;51482;47.014;7.652;2022-12-07T05:58:07;2.50;99.90
64951;DHT22;51482;47.014;7.652;2022-12-07T06:00:54;2.00;99.90
64951;DHT22;51482;47.014;7.652;2022-12-07T06:03:20;2.70;99.90
64951;DHT22;51482;47.014;7.652;2022-12-07T06:05:46;2.50;99.90
64951;DHT22;51482;47.014;7.652;2022-12-07T06:08:11;2.70;99.90
64951;DHT22;51482;47.014;7.652;2022-12-07T06:10:37;2.00;99.90
64951;DHT22;51482;47.014;7.652;2022-12-07T06:13:02;2.80;99.90
64951;DHT22;51482;47.014;7.652;2022-12-07T06:15:28;2.00;99.90
64951;DHT22;51482;47.014;7.652;2022-12-07T06:17:53;2.40;99.90
64951;DHT22;51482;47.014;7.652;2022-12-07T06:20:19;2.00;99.90
64951;DHT22;51482;47.014;7.652;2022-12-07T06:22:45;2.00;99.90
64951;DHT22;51482;47.014;7.652;2022-12-07T06:25:10;2.10;99.90
64951;DHT22;51482;47.014;7.652;2022-12-07T06:27:36;2.60;99.90
64951;DHT22;51482;47.014;7.652;2022-12-07T06:30:02;2.30;99.90
64951;DHT22;51482;47.014;7.652;2022-12-07T06:32:32;2.00;99.90
64951;DHT22;51482;47.014;7.652;2022-12-07T06:34:59;2.70;99.90
64951;DHT22;51482;47.014;7.652;2022-12-07T06:37:24;2.20;99.90
64951;DHT22;51482;47.014;7.652;2022-12-07T06:39:50;2.80;99.90
64951;DHT22;51482;47.014;7.652;2022-12-07T06:42:15;2.80;99.90
64951;DHT22;51482;47.014;7.652;2022-12-07T06:44:41;2.90;99.90
64951;DHT22;51482;47.014;7.652;2022-12-07T06:47:07;2.70;99.90
64951;DHT22;51482;47.014;7.652;2022-12-07T06:49:33;2.00;99.90
64951;DHT22;51482;47.014;7.652;2022-12-07T06:51:59;2.50;99.90
64951;DHT22;51482;47.014;7.652;2022-12-07T06:54:25;2.90;99.90
64951;DHT22;51482;47.014;7.652;2022-12-07T06:56:50;2.20;99.90
64951;DHT22;51482;47.014;7.652;2022-12-07T06:59:16;2.80;99.90
64951;DHT22;51482;47.014;7.652;2022-12-07T07:01:42;2.20;99.90
64951;DHT22;51482;47.014;7.652;2022-12-07T07:04:07;1.60;99.90
64951;DHT22;51482;47.014;7.652;2022-12-07T07:06:33;2.10;99.90
64951;DHT22;51482;47.014;7.652;2022-12-07T07:08:59;2.30;99.90
64951;DHT22;51482;47.014;7.652;2022-12-07T07:11:24;2.50;99.90
64951;DHT22;51482;47.014;7.652;2022-12-07T07:13:51;2.20;99.90
64951;DHT22;51482;47.014;7.652;2022-12-07T07:16:17;2.30;99.90
64951;DHT22;51482;47.014;7.652;2022-12-07T07:18:42;2.40;99.90
64951;DHT22;51482;47.014;7.652;2022-12-07T07:21:08;2.90;99.90
64951;DHT22;51482;47.014;7.652;2022-12-07T07:23:33;3.00;99.90
64951;DHT22;51482;47.014;7.652;2022-12-07T07:25:59;3.10;99.90
64951;DHT22;51482;47.014;7.652;2022-12-07T07:28:25;2.60;99.90
64951;DHT22;51482;47.014;7.652;2022-12-07T07:30:50;2.50;99.90
64951;DHT22;51482;47.014;7.652;2022-12-07T07:33:16;2.90;99.90
64951;DHT22;51482;47.014;7.652;2022-12-07T07:35:42;2.80;99.90
64951;DHT22;51482;47.014;7.652;2022-12-07T07:38:08;2.90;99.90
64951;DHT22;51482;47.014;7.652;2022-12-07T07:40:34;2.80;99.90
64951;DHT22;51482;47.014;7.652;2022-12-07T07:43:00;2.70;99.90
64951;DHT22;51482;47.014;7.652;2022-12-07T07:45:26;3.00;99.90
64951;DHT22;51482;47.014;7.652;2022-12-07T07:47:52;3.10;99.90
64951;DHT22;51482;47.014;7.652;2022-12-07T07:50:18;2.40;99.90
64951;DHT22;51482;47.014;7.652;2022-12-07T07:52:44;2.30;99.90
64951;DHT22;51482;47.014;7.652;2022-12-07T07:55:11;2.40;99.90
64951;DHT22;51482;47.014;7.652;2022-12-07T07:57:37;3.10;99.90
64951;DHT22;51482;47.014;7.652;2022-12-07T08:00:05;2.90;99.90
64951;DHT22;51482;47.014;7.652;2022-12-07T08:02:31;2.30;99.90
64951;DHT22;51482;47.014;7.652;2022-12-07T08:04:57;1.80;99.90
64951;DHT22;51482;47.014;7.652;2022-12-07T08:07:22;1.90;99.90
64951;DHT22;51482;47.014;7.652;2022-12-07T08:09:48;2.70;99.90
64951;DHT22;51482;47.014;7.652;2022-12-07T08:12:13;2.70;99.90
64951;DHT22;51482;47.014;7.652;2022-12-07T08:14:39;2.60;99.90
64951;DHT22;51482;47.014;7.652;2022-12-07T08:17:04;1.90;99.90
64951;DHT22;51482;47.014;7.652;2022-12-07T08:19:30;3.10;99.90
64951;DHT22;51482;47.014;7.652;2022-12-07T08:21:56;2.30;99.90
64951;DHT22;51482;47.014;7.652;2022-12-07T08:24:23;3.10;99.90
64951;DHT22;51482;47.014;7.652;2022-12-07T08:26:48;2.50;99.90
64951;DHT22;51482;47.014;7.652;2022-12-07T08:29:15;2.80;99.90
64951;DHT22;51482;47.014;7.652;2022-12-07T08:31:41;2.50;99.90
64951;DHT22;51482;47.014;7.652;2022-12-07T08:34:07;3.20;99.90
64951;DHT22;51482;47.014;7.652;2022-12-07T08:36:32;3.00;99.90
64951;DHT22;51482;47.014;7.652;2022-12-07T08:38:58;2.50;99.90
64951;DHT22;51482;47.014;7.652;2022-12-07T08:41:24;2.50;99.90
64951;DHT22;51482;47.014;7.652;2022-12-07T08:43:51;2.70;99.90
64951;DHT22;51482;47.014;7.652;2022-12-07T08:46:25;3.10;99.90
64951;DHT22;51482;47.014;7.652;2022-12-07T08:48:58;2.90;99.90
64951;DHT22;51482;47.014;7.652;2022-12-07T08:51:27;2.50;99.90
64951;DHT22;51482;47.014;7.652;2022-12-07T08:53:53;3.30;99.90
64951;DHT22;51482;47.014;7.652;2022-12-07T08:56:20;2.50;99.90
64951;DHT22;51482;47.014;7.652;2022-12-07T08:58:47;2.60;99.90
64951;DHT22;51482;47.014;7.652;2022-12-07T09:01:13;3.00;99.90
64951;DHT22;51482;47.014;7.652;2022-12-07T09:03:39;3.30;99.90
64951;DHT22;51482;47.014;7.652;2022-12-07T09:06:04;3.20;99.90
64951;DHT22;51482;47.014;7.652;2022-12-07T09:08:34;2.70;99.90
64951;DHT22;51482;47.014;7.652;2022-12-07T09:11:01;3.30;99.90
64951;DHT22;51482;47.014;7.652;2022-12-07T09:13:26;3.10;99.90
64951;DHT22;51482;47.014;7.652;2022-12-07T09:15:52;3.20;99.90
64951;DHT22;51482;47.014;7.652;2022-12-07T09:18:18;2.90;99.90
64951;DHT22;51482;47.014;7.652;2022-12-07T09:20:44;2.60;99.90
64951;DHT22;51482;47.014;7.652;2022-12-07T09:23:09;2.90;99.90
64951;DHT22;51482;47.014;7.652;2022-12-07T09:25:35;2.60;99.90
64951;DHT22;51482;47.014;7.652;2022-12-07T09:28:01;3.40;99.90
64951;DHT22;51482;47.014;7.652;2022-12-07T09:30:27;3.10;99.90
64951;DHT22;51482;47.014;7.652;2022-12-07T09:32:54;3.00;99.90
64951;DHT22;51482;47.014;7.652;2022-12-07T09:35:21;2.90;99.90
64951;DHT22;51482;47.014;7.652;2022-12-07T09:37:47;3.50;99.90
64951;DHT22;51482;47.014;7.652;2022-12-07T09:40:14;3.40;99.90
64951;DHT22;51482;47.014;7.652;2022-12-07T09:42:44;2.90;99.90
64951;DHT22;51482;47.014;7.652;2022-12-07T09:45:25;3.00;99.90
64951;DHT22;51482;47.014;7.652;2022-12-07T09:47:52;2.90;99.90
64951;DHT22;51482;47.014;7.652;2022-12-07T09:50:24;3.10;99.90
64951;DHT22;51482;47.014;7.652;2022-12-07T09:52:50;3.20;99.90
64951;DHT22;51482;47.014;7.652;2022-12-07T09:55:25;2.90;99.90
64951;DHT22;51482;47.014;7.652;2022-12-07T09:57:52;2.90;99.90
64951;DHT22;51482;47.014;7.652;2022-12-07T10:00:21;2.60;99.90
64951;DHT22;51482;47.014;7.652;2022-12-07T10:02:57;3.10;99.90
64951;DHT22;51482;47.014;7.652;2022-12-07T10:05:30;3.60;99.90
64951;DHT22;51482;47.014;7.652;2022-12-07T10:07:56;3.60;99.90
64951;DHT22;51482;47.014;7.652;2022-12-07T10:10:29;3.50;99.90
64951;DHT22;51482;47.014;7.652;2022-12-07T10:13:07;3.70;99.90
64951;DHT22;51482;47.014;7.652;2022-12-07T10:15:45;3.80;99.90
64951;DHT22;51482;47.014;7.652;2022-12-07T10:23:41;3.50;99.90
64951;DHT22;51482;47.014;7.652;2022-12-07T10:26:26;3.60;99.90
64951;DHT22;51482;47.014;7.652;2022-12-07T10:28:53;3.60;99.90
64951;DHT22;51482;47.014;7.652;2022-12-07T10:31:22;3.80;99.90
64951;DHT22;51482;47.014;7.652;2022-12-07T10:33:59;3.80;99.90
64951;DHT22;51482;47.014;7.652;2022-12-07T10:36:36;3.30;99.90
64951;DHT22;51482;47.014;7.652;2022-12-07T10:39:10;3.70;99.90
64951;DHT22;51482;47.014;7.652;2022-12-07T10:41:56;3.20;99.90
64951;DHT22;51482;47.014;7.652;2022-12-07T10:44:24;3.40;99.90
64951;DHT22;51482;47.014;7.652;2022-12-07T10:56:02;2.70;99.90
64951;DHT22;51482;47.014;7.652;2022-12-07T11:01:31;3.10;99.90
64951;DHT22;51482;47.014;7.652;2022-12-07T11:06:54;3.20;99.90
64951;DHT22;51482;47.014;7.652;2022-12-07T11:17:48;3.30;99.90
64951;DHT22;51482;47.014;7.652;2022-12-07T11:23:11;3.80;99.90
64951;DHT22;51482;47.014;7.652;2022-12-07T11:25:59;4.10;99.90
64951;DHT22;51482;47.014;7.652;2022-12-07T11:37:03;3.50;99.90
64951;DHT22;51482;47.014;7.652;2022-12-07T11:39:44;3.50;99.90
64951;DHT22;51482;47.014;7.652;2022-12-07T11:43:22;4.10;99.90
64951;DHT22;51482;47.014;7.652;2022-12-07T11:45:25;3.70;99.90
64951;DHT22;51482;47.014;7.652;2022-12-07T11:50:46;3.70;99.90
64951;DHT22;51482;47.014;7.652;2022-12-07T11:56:14;4.20;99.90
64951;DHT22;51482;47.014;7.652;2022-12-07T12:01:38;3.70;99.90
64951;DHT22;51482;47.014;7.652;2022-12-07T12:06:36;3.70;99.90
64951;DHT22;51482;47.014;7.652;2022-12-07T12:09:15;4.20;99.90
64951;DHT22;51482;47.014;7.652;2022-12-07T12:17:16;3.70;99.90
64951;DHT22;51482;47.014;7.652;2022-12-07T12:20:17;3.80;99.90
64951;DHT22;51482;47.014;7.652;2022-12-07T12:23:07;4.60;99.90
64951;DHT22;51482;47.014;7.652;2022-12-07T12:25:45;4.10;99.90
64951;DHT22;51482;47.014;7.652;2022-12-07T12:28:29;4.30;99.90
64951;DHT22;51482;47.014;7.652;2022-12-07T12:33:55;3.80;99.90
64951;DHT22;51482;47.014;7.652;2022-12-07T12:47:38;3.80;99.90
64951;DHT22;51482;47.014;7.652;2022-12-07T12:50:17;4.40;99.90
64951;DHT22;51482;47.014;7.652;2022-12-07T12:57:36;3.90;99.90
64951;DHT22;51482;47.014;7.652;2022-12-07T13:00:23;4.00;99.90
64951;DHT22;51482;47.014;7.652;2022-12-07T13:02:55;4.00;99.90
64951;DHT22;51482;47.014;7.652;2022-12-07T13:05:23;4.60;99.90
64951;DHT22;51482;47.014;7.652;2022-12-07T13:08:20;4.20;99.90
64951;DHT22;51482;47.014;7.652;2022-12-07T13:10:47;3.90;99.90
64951;DHT22;51482;47.014;7.652;2022-12-07T13:15:46;3.90;99.90
64951;DHT22;51482;47.014;7.652;2022-12-07T13:20:55;4.00;99.90
64951;DHT22;51482;47.014;7.652;2022-12-07T13:28:41;4.00;99.90
64951;DHT22;51482;47.014;7.652;2022-12-07T13:33:38;4.00;99.90
64951;DHT22;51482;47.014;7.652;2022-12-07T13:36:04;4.60;99.90
64951;DHT22;51482;47.014;7.652;2022-12-07T13:38:34;4.00;99.90
64951;DHT22;51482;47.014;7.652;2022-12-07T13:44:07;4.00;99.90
64951;DHT22;51482;47.014;7.652;2022-12-07T13:46:44;4.10;99.90
64951;DHT22;51482;47.014;7.652;2022-12-07T13:49:31;3.60;99.90
64951;DHT22;51482;47.014;7.652;2022-12-07T13:52:20;4.10;99.90
64951;DHT22;51482;47.014;7.652;2022-12-07T13:57:16;4.80;99.90
64951;DHT22;51482;47.014;7.652;2022-12-07T13:59:43;4.80;99.90
64951;DHT22;51482;47.014;7.652;2022-12-07T14:02:28;5.00;99.90
64951;DHT22;51482;47.014;7.652;2022-12-07T14:05:14;4.80;99.90
64951;DHT22;51482;47.014;7.652;2022-12-07T14:08:02;4.90;99.90
64951;DHT22;51482;47.014;7.652;2022-12-07T14:12:56;4.30;99.90
64951;DHT22;51482;47.014;7.652;2022-12-07T14:15:27;4.80;99.90
64951;DHT22;51482;47.014;7.652;2022-12-07T14:17:55;4.80;99.90
64951;DHT22;51482;47.014;7.652;2022-12-07T14:20:40;4.80;99.90
64951;DHT22;51482;47.014;7.652;2022-12-07T14:23:25;4.60;99.90
64951;DHT22;51482;47.014;7.652;2022-12-07T14:25:52;4.50;99.90
64951;DHT22;51482;47.014;7.652;2022-12-07T14:28:35;4.90;99.90
64951;DHT22;51482;47.014;7.652;2022-12-07T14:31:02;4.80;99.90
64951;DHT22;51482;47.014;7.652;2022-12-07T14:33:28;4.20;99.90
64951;DHT22;51482;47.014;7.652;2022-12-07T14:35:55;4.80;99.90
64951;DHT22;51482;47.014;7.652;2022-12-07T14:38:23;4.00;99.90
64951;DHT22;51482;47.014;7.652;2022-12-07T14:40:53;4.70;99.90
64951;DHT22;51482;47.014;7.652;2022-12-07T14:43:19;4.20;99.90
64951;DHT22;51482;47.014;7.652;2022-12-07T14:45:46;4.90;99.90
64951;DHT22;51482;47.014;7.652;2022-12-07T14:48:13;4.10;99.90
64951;DHT22;51482;47.014;7.652;2022-12-07T14:50:45;4.70;99.90
64951;DHT22;51482;47.014;7.652;2022-12-07T14:53:17;4.80;99.90
64951;DHT22;51482;47.014;7.652;2022-12-07T14:55:43;4.20;99.90
64951;DHT22;51482;47.014;7.652;2022-12-07T14:58:14;4.20;99.90
64951;DHT22;51482;47.014;7.652;2022-12-07T15:00:40;4.80;99.90
64951;DHT22;51482;47.014;7.652;2022-12-07T15:03:05;4.60;99.90
64951;DHT22;51482;47.014;7.652;2022-12-07T15:05:31;4.70;99.90
64951;DHT22;51482;47.014;7.652;2022-12-07T15:07:57;4.40;99.90
64951;DHT22;51482;47.014;7.652;2022-12-07T15:10:26;4.70;99.90
64951;DHT22;51482;47.014;7.652;2022-12-07T15:12:58;4.20;99.90
64951;DHT22;51482;47.014;7.652;2022-12-07T15:15:44;4.20;99.90
64951;DHT22;51482;47.014;7.652;2022-12-07T15:18:10;4.20;99.90
64951;DHT22;51482;47.014;7.652;2022-12-07T15:20:35;4.40;99.90
64951;DHT22;51482;47.014;7.652;2022-12-07T15:23:01;4.80;99.90
64951;DHT22;51482;47.014;7.652;2022-12-07T15:25:27;4.60;99.90
64951;DHT22;51482;47.014;7.652;2022-12-07T15:27:53;4.50;99.90
64951;DHT22;51482;47.014;7.652;2022-12-07T15:30:18;4.50;99.90
64951;DHT22;51482;47.014;7.652;2022-12-07T15:32:44;3.90;99.90
64951;DHT22;51482;47.014;7.652;2022-12-07T15:35:09;4.40;99.90
64951;DHT22;51482;47.014;7.652;2022-12-07T15:37:35;3.50;99.90
64951;DHT22;51482;47.014;7.652;2022-12-07T15:40:00;4.00;99.90
64951;DHT22;51482;47.014;7.652;2022-12-07T15:42:26;3.90;99.90
64951;DHT22;51482;47.014;7.652;2022-12-07T15:44:52;4.40;99.90
64951;DHT22;51482;47.014;7.652;2022-12-07T15:47:39;3.90;99.90
64951;DHT22;51482;47.014;7.652;2022-12-07T15:50:07;4.20;99.90
64951;DHT22;51482;47.014;7.652;2022-12-07T15:52:34;4.10;99.90
64951;DHT22;51482;47.014;7.652;2022-12-07T15:54:59;4.60;99.90
64951;DHT22;51482;47.014;7.652;2022-12-07T15:57:26;4.40;99.90
64951;DHT22;51482;47.014;7.652;2022-12-07T15:59:52;4.10;99.90
64951;DHT22;51482;47.014;7.652;2022-12-07T16:02:18;4.40;99.90
64951;DHT22;51482;47.014;7.652;2022-12-07T16:04:43;3.40;99.90
64951;DHT22;51482;47.014;7.652;2022-12-07T16:07:09;4.10;99.90
64951;DHT22;51482;47.014;7.652;2022-12-07T16:09:36;4.50;99.90
64951;DHT22;51482;47.014;7.652;2022-12-07T16:12:02;4.60;99.90
64951;DHT22;51482;47.014;7.652;2022-12-07T16:14:28;4.00;99.90
64951;DHT22;51482;47.014;7.652;2022-12-07T16:16:54;4.60;99.90
64951;DHT22;51482;47.014;7.652;2022-12-07T16:19:19;4.10;99.90
64951;DHT22;51482;47.014;7.652;2022-12-07T16:21:45;4.50;99.90
64951;DHT22;51482;47.014;7.652;2022-12-07T16:24:11;3.90;99.90
64951;DHT22;51482;47.014;7.652;2022-12-07T16:26:38;3.60;99.90
64951;DHT22;51482;47.014;7.652;2022-12-07T16:29:03;4.50;99.90
64951;DHT22;51482;47.014;7.652;2022-12-07T16:31:29;4.00;99.90
64951;DHT22;51482;47.014;7.652;2022-12-07T16:33:57;4.50;99.90
64951;DHT22;51482;47.014;7.652;2022-12-07T16:36:24;4.60;99.90
64951;DHT22;51482;47.014;7.652;2022-12-07T16:38:51;4.40;99.90
64951;DHT22;51482;47.014;7.652;2022-12-07T16:41:17;4.60;99.90
64951;DHT22;51482;47.014;7.652;2022-12-07T16:43:43;4.60;99.90
64951;DHT22;51482;47.014;7.652;2022-12-07T16:46:08;4.40;99.90
64951;DHT22;51482;47.014;7.652;2022-12-07T16:48:38;4.70;99.90
64951;DHT22;51482;47.014;7.652;2022-12-07T16:51:09;4.50;99.90
64951;DHT22;51482;47.014;7.652;2022-12-07T16:53:36;3.80;99.90
64951;DHT22;51482;47.014;7.652;2022-12-07T16:56:02;4.50;99.90
64951;DHT22;51482;47.014;7.652;2022-12-07T16:58:28;4.10;99.90
64951;DHT22;51482;47.014;7.652;2022-12-07T17:00:54;3.90;99.90
64951;DHT22;51482;47.014;7.652;2022-12-07T17:03:20;4.50;99.90
64951;DHT22;51482;47.014;7.652;2022-12-07T17:05:46;4.50;99.90
64951;DHT22;51482;47.014;7.652;2022-12-07T17:08:13;4.60;99.90
64951;DHT22;51482;47.014;7.652;2022-12-07T17:10:41;4.00;99.90
64951;DHT22;51482;47.014;7.652;2022-12-07T17:13:07;4.70;99.90
64951;DHT22;51482;47.014;7.652;2022-12-07T17:16:00;4.60;99.90
64951;DHT22;51482;47.014;7.652;2022-12-07T17:18:28;4.60;99.90
64951;DHT22;51482;47.014;7.652;2022-12-07T17:20:54;4.00;99.90
64951;DHT22;51482;47.014;7.652;2022-12-07T17:23:19;4.20;99.90
64951;DHT22;51482;47.014;7.652;2022-12-07T17:25:45;3.60;99.90
64951;DHT22;51482;47.014;7.652;2022-12-07T17:28:11;4.40;99.90
64951;DHT22;51482;47.014;7.652;2022-12-07T17:30:38;4.60;99.90
64951;DHT22;51482;47.014;7.652;2022-12-07T17:33:03;4.10;99.90
64951;DHT22;51482;47.014;7.652;2022-12-07T17:35:29;4.70;99.90
64951;DHT22;51482;47.014;7.652;2022-12-07T17:37:54;4.70;99.90
64951;DHT22;51482;47.014;7.652;2022-12-07T17:40:21;4.10;99.90
64951;DHT22;51482;47.014;7.652;2022-12-07T17:42:47;4.60;99.90
64951;DHT22;51482;47.014;7.652;2022-12-07T17:45:16;3.80;99.90
64951;DHT22;51482;47.014;7.652;2022-12-07T17:47:42;4.10;99.90
64951;DHT22;51482;47.014;7.652;2022-12-07T17:50:08;4.00;99.90
64951;DHT22;51482;47.014;7.652;2022-12-07T17:52:38;4.60;99.90
64951;DHT22;51482;47.014;7.652;2022-12-07T17:55:22;4.20;99.90
64951;DHT22;51482;47.014;7.652;2022-12-07T17:57:48;4.70;99.90
64951;DHT22;51482;47.014;7.652;2022-12-07T18:00:14;4.10;99.90